sensor_id;sensor_type;location;lat;lon;timestamp;pressure;altitude;pressure_sealevel;temperature;humidity
56825;BME280;42705;50.326;18.772;2023-02-04T00:04:04;97719.31;;;2.58;82.93
56825;BME280;42705;50.326;18.772;2023-02-04T00:09:25;97712.92;;;2.58;82.95
56825;BME280;42705;50.326;18.772;2023-02-04T00:14:47;97715.47;;;2.56;82.99
56825;BME280;42705;50.326;18.772;2023-02-04T00:20:08;97714.77;;;2.59;83.17
56825;BME280;42705;50.326;18.772;2023-02-04T00:25:30;97711.20;;;2.58;82.76
56825;BME280;42705;50.326;18.772;2023-02-04T00:30:51;97708.73;;;2.54;83.05
56825;BME280;42705;50.326;18.772;2023-02-04T00:36:12;97717.14;;;2.52;82.95
56825;BME280;42705;50.326;18.772;2023-02-04T00:41:33;97701.02;;;2.53;83.03
56825;BME280;42705;50.326;18.772;2023-02-04T00:46:55;97701.66;;;2.50;83.24
56825;BME280;42705;50.326;18.772;2023-02-04T00:52:17;97710.91;;;2.50;83.16
56825;BME280;42705;50.326;18.772;2023-02-04T00:57:38;97699.09;;;2.49;83.27
56825;BME280;42705;50.326;18.772;2023-02-04T01:02:59;97703.46;;;2.48;83.17
56825;BME280;42705;50.326;18.772;2023-02-04T01:08:21;97706.45;;;2.50;83.10
56825;BME280;42705;50.326;18.772;2023-02-04T01:13:44;97689.10;;;2.52;83.27
56825;BME280;42705;50.326;18.772;2023-02-04T01:19:06;97686.55;;;2.51;83.33
56825;BME280;42705;50.326;18.772;2023-02-04T01:24:27;97690.48;;;2.51;83.38
56825;BME280;42705;50.326;18.772;2023-02-04T01:30:08;97702.70;;;2.56;83.21
56825;BME280;42705;50.326;18.772;2023-02-04T01:35:29;97713.18;;;2.57;83.16
56825;BME280;42705;50.326;18.772;2023-02-04T01:40:51;97729.75;;;2.49;82.61
56825;BME280;42705;50.326;18.772;2023-02-04T01:46:13;97729.58;;;2.37;82.58
56825;BME280;42705;50.326;18.772;2023-02-04T01:51:35;97727.36;;;2.24;82.49
56825;BME280;42705;50.326;18.772;2023-02-04T01:56:57;97732.90;;;2.18;82.32
56825;BME280;42705;50.326;18.772;2023-02-04T02:02:43;97732.44;;;2.12;82.09
56825;BME280;42705;50.326;18.772;2023-02-04T02:08:06;97741.02;;;2.05;81.53
56825;BME280;42705;50.326;18.772;2023-02-04T02:13:28;97757.86;;;1.98;81.06
56825;BME280;42705;50.326;18.772;2023-02-04T02:18:50;97761.09;;;1.85;81.02
56825;BME280;42705;50.326;18.772;2023-02-04T02:29:47;97774.14;;;1.41;80.48
56825;BME280;42705;50.326;18.772;2023-02-04T02:35:10;97782.08;;;1.21;80.44
56825;BME280;42705;50.326;18.772;2023-02-04T02:40:32;97790.71;;;1.07;81.06
56825;BME280;42705;50.326;18.772;2023-02-04T02:45:58;97798.27;;;1.01;81.18
56825;BME280;42705;50.326;18.772;2023-02-04T02:51:20;97806.13;;;0.97;81.08
56825;BME280;42705;50.326;18.772;2023-02-04T02:56:42;97809.02;;;0.89;81.31
56825;BME280;42705;50.326;18.772;2023-02-04T03:02:05;97832.84;;;0.88;81.39
56825;BME280;42705;50.326;18.772;2023-02-04T03:07:30;97848.14;;;0.79;81.33
56825;BME280;42705;50.326;18.772;2023-02-04T03:12:52;97855.50;;;0.71;81.54
56825;BME280;42705;50.326;18.772;2023-02-04T03:18:16;97860.70;;;0.70;81.63
56825;BME280;42705;50.326;18.772;2023-02-04T03:23:40;97872.86;;;0.71;81.75
56825;BME280;42705;50.326;18.772;2023-02-04T03:29:01;97880.60;;;0.65;81.76
56825;BME280;42705;50.326;18.772;2023-02-04T03:34:26;97899.84;;;0.60;81.57
56825;BME280;42705;50.326;18.772;2023-02-04T03:39:48;97915.50;;;0.59;81.62
56825;BME280;42705;50.326;18.772;2023-02-04T03:45:09;97933.63;;;0.58;81.73
56825;BME280;42705;50.326;18.772;2023-02-04T03:50:31;97951.69;;;0.51;81.60
56825;BME280;42705;50.326;18.772;2023-02-04T03:55:55;97978.86;;;0.45;81.58
56825;BME280;42705;50.326;18.772;2023-02-04T04:01:17;98012.36;;;0.33;81.54
56825;BME280;42705;50.326;18.772;2023-02-04T04:06:38;98042.39;;;0.14;81.18
56825;BME280;42705;50.326;18.772;2023-02-04T04:11:59;98089.14;;;-0.06;80.69
56825;BME280;42705;50.326;18.772;2023-02-04T04:17:21;98130.99;;;-0.15;80.94
56825;BME280;42705;50.326;18.772;2023-02-04T04:22:44;98162.25;;;-0.29;80.48
56825;BME280;42705;50.326;18.772;2023-02-04T04:28:05;98207.27;;;-0.47;80.22
56825;BME280;42705;50.326;18.772;2023-02-04T04:33:27;98243.12;;;-0.64;79.84
56825;BME280;42705;50.326;18.772;2023-02-04T04:38:48;98262.87;;;-0.83;79.36
56825;BME280;42705;50.326;18.772;2023-02-04T04:44:09;98309.77;;;-0.96;79.54
56825;BME280;42705;50.326;18.772;2023-02-04T04:49:30;98344.12;;;-1.01;79.18
56825;BME280;42705;50.326;18.772;2023-02-04T04:54:52;98379.50;;;-1.03;79.10
56825;BME280;42705;50.326;18.772;2023-02-04T05:00:16;98405.58;;;-1.03;79.01
56825;BME280;42705;50.326;18.772;2023-02-04T05:05:38;98440.58;;;-1.07;79.18
56825;BME280;42705;50.326;18.772;2023-02-04T05:11:02;98474.39;;;-1.12;78.98
56825;BME280;42705;50.326;18.772;2023-02-04T05:16:23;98507.98;;;-1.21;79.03
56825;BME280;42705;50.326;18.772;2023-02-04T05:21:45;98543.44;;;-1.28;79.06
56825;BME280;42705;50.326;18.772;2023-02-04T05:27:06;98570.92;;;-1.35;78.73
56825;BME280;42705;50.326;18.772;2023-02-04T05:32:30;98608.70;;;-1.36;78.63
56825;BME280;42705;50.326;18.772;2023-02-04T05:37:51;98639.74;;;-1.41;78.13
56825;BME280;42705;50.326;18.772;2023-02-04T05:43:15;98674.20;;;-1.46;77.84
56825;BME280;42705;50.326;18.772;2023-02-04T05:48:36;98693.30;;;-1.49;77.64
56825;BME280;42705;50.326;18.772;2023-02-04T05:54:00;98730.61;;;-1.47;77.34
56825;BME280;42705;50.326;18.772;2023-02-04T05:59:21;98758.85;;;-1.46;77.45
56825;BME280;42705;50.326;18.772;2023-02-04T06:04:42;98794.79;;;-1.45;77.21
56825;BME280;42705;50.326;18.772;2023-02-04T06:10:04;98829.04;;;-1.44;76.91
56825;BME280;42705;50.326;18.772;2023-02-04T06:15:25;98855.80;;;-1.46;76.84
56825;BME280;42705;50.326;18.772;2023-02-04T06:20:47;98880.98;;;-1.45;76.90
56825;BME280;42705;50.326;18.772;2023-02-04T06:26:09;98910.73;;;-1.43;76.88
56825;BME280;42705;50.326;18.772;2023-02-04T06:31:30;98932.83;;;-1.43;76.91
56825;BME280;42705;50.326;18.772;2023-02-04T06:36:51;98957.39;;;-1.45;76.95
56825;BME280;42705;50.326;18.772;2023-02-04T06:42:15;98971.89;;;-1.48;76.93
56825;BME280;42705;50.326;18.772;2023-02-04T06:47:36;99003.84;;;-1.50;76.96
56825;BME280;42705;50.326;18.772;2023-02-04T06:52:58;99023.10;;;-1.47;76.88
56825;BME280;42705;50.326;18.772;2023-02-04T06:58:19;99049.96;;;-1.46;76.68
56825;BME280;42705;50.326;18.772;2023-02-04T07:03:40;99077.15;;;-1.44;76.69
56825;BME280;42705;50.326;18.772;2023-02-04T07:09:02;99096.13;;;-1.42;76.43
56825;BME280;42705;50.326;18.772;2023-02-04T07:14:24;99116.14;;;-1.42;76.35
56825;BME280;42705;50.326;18.772;2023-02-04T07:19:45;99128.50;;;-1.42;76.22
56825;BME280;42705;50.326;18.772;2023-02-04T07:25:08;99147.98;;;-1.41;75.92
56825;BME280;42705;50.326;18.772;2023-02-04T07:30:31;99164.07;;;-1.40;75.85
56825;BME280;42705;50.326;18.772;2023-02-04T07:35:52;99174.80;;;-1.38;75.91
56825;BME280;42705;50.326;18.772;2023-02-04T07:41:14;99191.82;;;-1.34;75.74
56825;BME280;42705;50.326;18.772;2023-02-04T07:46:35;99208.81;;;-1.40;75.50
56825;BME280;42705;50.326;18.772;2023-02-04T07:51:56;99220.73;;;-1.44;75.52
56825;BME280;42705;50.326;18.772;2023-02-04T07:57:18;99234.02;;;-1.46;75.40
56825;BME280;42705;50.326;18.772;2023-02-04T08:02:40;99253.09;;;-1.48;75.18
56825;BME280;42705;50.326;18.772;2023-02-04T08:08:02;99273.04;;;-1.39;75.11
56825;BME280;42705;50.326;18.772;2023-02-04T08:13:23;99283.74;;;-1.36;74.84
56825;BME280;42705;50.326;18.772;2023-02-04T08:18:46;99304.23;;;-1.32;74.80
56825;BME280;42705;50.326;18.772;2023-02-04T08:24:08;99329.07;;;-1.20;74.92
56825;BME280;42705;50.326;18.772;2023-02-04T08:29:29;99346.60;;;-1.09;74.69
56825;BME280;42705;50.326;18.772;2023-02-04T08:34:50;99364.07;;;-1.03;74.85
56825;BME280;42705;50.326;18.772;2023-02-04T08:40:12;99372.92;;;-0.94;74.62
56825;BME280;42705;50.326;18.772;2023-02-04T08:45:33;99382.26;;;-0.85;74.52
56825;BME280;42705;50.326;18.772;2023-02-04T08:50:54;99403.14;;;-0.72;74.21
56825;BME280;42705;50.326;18.772;2023-02-04T08:56:15;99412.70;;;-0.58;74.03
56825;BME280;42705;50.326;18.772;2023-02-04T09:01:39;99415.69;;;-0.38;73.97
56825;BME280;42705;50.326;18.772;2023-02-04T09:07:00;99423.76;;;-0.26;73.42
56825;BME280;42705;50.326;18.772;2023-02-04T09:12:21;99438.37;;;-0.21;73.22
56825;BME280;42705;50.326;18.772;2023-02-04T09:17:42;99452.33;;;-0.12;72.97
56825;BME280;42705;50.326;18.772;2023-02-04T09:23:04;99470.48;;;-0.16;72.69
56825;BME280;42705;50.326;18.772;2023-02-04T09:28:29;99492.95;;;-0.04;72.81
56825;BME280;42705;50.326;18.772;2023-02-04T09:33:50;99501.80;;;-0.01;72.23
56825;BME280;42705;50.326;18.772;2023-02-04T09:39:11;99517.10;;;-0.07;71.91
56825;BME280;42705;50.326;18.772;2023-02-04T09:44:32;99522.54;;;-0.11;71.53
56825;BME280;42705;50.326;18.772;2023-02-04T09:49:54;99539.18;;;-0.16;71.46
56825;BME280;42705;50.326;18.772;2023-02-04T09:55:17;99544.99;;;-0.09;71.24
56825;BME280;42705;50.326;18.772;2023-02-04T10:00:38;99541.10;;;0.12;70.89
56825;BME280;42705;50.326;18.772;2023-02-04T10:06:00;99547.17;;;0.32;70.81
56825;BME280;42705;50.326;18.772;2023-02-04T10:11:23;99558.77;;;0.24;70.12
56825;BME280;42705;50.326;18.772;2023-02-04T10:16:55;99577.52;;;0.06;69.90
56825;BME280;42705;50.326;18.772;2023-02-04T10:22:19;99584.22;;;-0.06;69.66
56825;BME280;42705;50.326;18.772;2023-02-04T10:33:22;99580.63;;;0.11;68.56
56825;BME280;42705;50.326;18.772;2023-02-04T10:38:58;99586.65;;;0.23;68.33
56825;BME280;42705;50.326;18.772;2023-02-04T10:44:30;99594.85;;;0.24;67.45
56825;BME280;42705;50.326;18.772;2023-02-04T10:49:56;99596.48;;;0.16;66.82
56825;BME280;42705;50.326;18.772;2023-02-04T10:55:22;99604.48;;;0.18;65.92
56825;BME280;42705;50.326;18.772;2023-02-04T11:00:44;99617.13;;;0.26;65.63
56825;BME280;42705;50.326;18.772;2023-02-04T11:06:20;99614.70;;;0.33;64.91
56825;BME280;42705;50.326;18.772;2023-02-04T11:11:48;99614.23;;;0.37;65.22
56825;BME280;42705;50.326;18.772;2023-02-04T11:17:19;99616.98;;;0.48;64.18
56825;BME280;42705;50.326;18.772;2023-02-04T11:22:45;99611.75;;;0.50;63.56
56825;BME280;42705;50.326;18.772;2023-02-04T11:28:24;99627.65;;;0.42;63.43
56825;BME280;42705;50.326;18.772;2023-02-04T11:33:47;99629.92;;;0.47;62.89
56825;BME280;42705;50.326;18.772;2023-02-04T11:39:15;99644.60;;;0.45;62.77
56825;BME280;42705;50.326;18.772;2023-02-04T11:44:37;99655.54;;;0.41;62.63
56825;BME280;42705;50.326;18.772;2023-02-04T11:50:01;99656.15;;;0.32;62.60
56825;BME280;42705;50.326;18.772;2023-02-04T11:55:23;99662.27;;;0.34;62.37
56825;BME280;42705;50.326;18.772;2023-02-04T12:00:46;99663.00;;;0.26;62.24
56825;BME280;42705;50.326;18.772;2023-02-04T12:06:07;99666.60;;;0.39;61.80
56825;BME280;42705;50.326;18.772;2023-02-04T12:11:28;99676.73;;;0.51;61.48
56825;BME280;42705;50.326;18.772;2023-02-04T12:16:53;99683.44;;;0.79;60.82
56825;BME280;42705;50.326;18.772;2023-02-04T12:22:16;99689.50;;;0.72;60.80
56825;BME280;42705;50.326;18.772;2023-02-04T12:27:38;99693.15;;;0.76;60.68
56825;BME280;42705;50.326;18.772;2023-02-04T12:32:59;99690.58;;;1.20;60.70
56825;BME280;42705;50.326;18.772;2023-02-04T12:38:20;99690.55;;;1.21;60.59
56825;BME280;42705;50.326;18.772;2023-02-04T12:43:41;99688.71;;;1.09;60.39
56825;BME280;42705;50.326;18.772;2023-02-04T12:49:03;99694.90;;;1.04;61.02
56825;BME280;42705;50.326;18.772;2023-02-04T12:54:24;99706.20;;;0.89;60.98
56825;BME280;42705;50.326;18.772;2023-02-04T12:59:46;99712.77;;;0.64;61.29
56825;BME280;42705;50.326;18.772;2023-02-04T13:05:08;99721.41;;;0.46;61.59
56825;BME280;42705;50.326;18.772;2023-02-04T13:10:30;99732.77;;;0.08;61.40
56825;BME280;42705;50.326;18.772;2023-02-04T13:15:51;99727.80;;;0.01;61.92
56825;BME280;42705;50.326;18.772;2023-02-04T13:21:13;99739.04;;;0.42;62.24
56825;BME280;42705;50.326;18.772;2023-02-04T13:26:34;99747.08;;;0.31;62.92
56825;BME280;42705;50.326;18.772;2023-02-04T13:31:56;99750.07;;;0.16;63.02
56825;BME280;42705;50.326;18.772;2023-02-04T13:37:17;99752.03;;;0.14;62.86
56825;BME280;42705;50.326;18.772;2023-02-04T13:42:39;99754.15;;;0.12;62.36
56825;BME280;42705;50.326;18.772;2023-02-04T13:48:00;99762.88;;;0.00;62.79
56825;BME280;42705;50.326;18.772;2023-02-04T13:53:22;99767.54;;;-0.01;62.56
56825;BME280;42705;50.326;18.772;2023-02-04T13:58:44;99766.14;;;-0.13;62.61
56825;BME280;42705;50.326;18.772;2023-02-04T14:04:05;99764.08;;;-0.13;62.80
56825;BME280;42705;50.326;18.772;2023-02-04T14:09:28;99761.45;;;-0.11;63.08
56825;BME280;42705;50.326;18.772;2023-02-04T14:14:49;99770.16;;;-0.15;63.37
56825;BME280;42705;50.326;18.772;2023-02-04T14:20:11;99779.71;;;-0.20;63.44
56825;BME280;42705;50.326;18.772;2023-02-04T14:25:32;99793.20;;;-0.31;63.82
56825;BME280;42705;50.326;18.772;2023-02-04T14:30:54;99794.54;;;-0.44;64.33
56825;BME280;42705;50.326;18.772;2023-02-04T14:36:15;99798.50;;;-0.51;64.99
56825;BME280;42705;50.326;18.772;2023-02-04T14:41:36;99807.17;;;-0.62;65.52
56825;BME280;42705;50.326;18.772;2023-02-04T14:46:57;99800.21;;;-0.96;66.20
56825;BME280;42705;50.326;18.772;2023-02-04T14:52:18;99802.54;;;-1.25;67.17
56825;BME280;42705;50.326;18.772;2023-02-04T14:57:39;99816.95;;;-1.35;67.74
56825;BME280;42705;50.326;18.772;2023-02-04T15:03:01;99827.64;;;-1.29;67.83
56825;BME280;42705;50.326;18.772;2023-02-04T15:08:22;99828.25;;;-1.17;68.13
56825;BME280;42705;50.326;18.772;2023-02-04T15:13:43;99834.42;;;-1.08;68.41
56825;BME280;42705;50.326;18.772;2023-02-04T15:19:05;99843.45;;;-1.14;68.03
56825;BME280;42705;50.326;18.772;2023-02-04T15:24:26;99854.98;;;-1.24;67.92
56825;BME280;42705;50.326;18.772;2023-02-04T15:29:49;99856.17;;;-1.24;67.96
56825;BME280;42705;50.326;18.772;2023-02-04T15:35:12;99861.46;;;-1.23;67.99
56825;BME280;42705;50.326;18.772;2023-02-04T15:40:36;99866.52;;;-1.26;67.71
56825;BME280;42705;50.326;18.772;2023-02-04T15:45:58;99865.98;;;-1.34;67.54
56825;BME280;42705;50.326;18.772;2023-02-04T15:51:19;99870.17;;;-1.38;67.47
56825;BME280;42705;50.326;18.772;2023-02-04T15:56:40;99875.52;;;-1.40;67.22
56825;BME280;42705;50.326;18.772;2023-02-04T16:02:01;99876.33;;;-1.46;67.55
56825;BME280;42705;50.326;18.772;2023-02-04T16:07:23;99878.81;;;-1.51;67.46
56825;BME280;42705;50.326;18.772;2023-02-04T16:12:44;99884.09;;;-1.49;67.71
56825;BME280;42705;50.326;18.772;2023-02-04T16:18:07;99893.20;;;-1.50;67.94
56825;BME280;42705;50.326;18.772;2023-02-04T16:23:28;99898.48;;;-1.58;68.14
56825;BME280;42705;50.326;18.772;2023-02-04T16:28:50;99903.92;;;-1.65;68.15
56825;BME280;42705;50.326;18.772;2023-02-04T16:34:11;99910.46;;;-1.67;67.88
56825;BME280;42705;50.326;18.772;2023-02-04T16:39:32;99916.94;;;-1.65;68.28
56825;BME280;42705;50.326;18.772;2023-02-04T16:44:53;99915.36;;;-1.73;68.84
56825;BME280;42705;50.326;18.772;2023-02-04T16:50:15;99926.25;;;-1.79;68.94
56825;BME280;42705;50.326;18.772;2023-02-04T16:55:36;99932.55;;;-1.88;69.32
56825;BME280;42705;50.326;18.772;2023-02-04T17:01:00;99922.84;;;-2.02;69.79
56825;BME280;42705;50.326;18.772;2023-02-04T17:06:26;99920.48;;;-2.04;70.60
56825;BME280;42705;50.326;18.772;2023-02-04T17:11:47;99920.55;;;-2.08;70.86
56825;BME280;42705;50.326;18.772;2023-02-04T17:17:12;99922.60;;;-2.08;71.30
56825;BME280;42705;50.326;18.772;2023-02-04T17:22:33;99920.61;;;-2.12;71.16
56825;BME280;42705;50.326;18.772;2023-02-04T17:27:55;99924.23;;;-2.14;71.32
56825;BME280;42705;50.326;18.772;2023-02-04T17:33:16;99927.73;;;-2.08;71.23
56825;BME280;42705;50.326;18.772;2023-02-04T17:38:38;99928.64;;;-2.00;71.51
56825;BME280;42705;50.326;18.772;2023-02-04T17:43:59;99926.34;;;-1.95;71.13
56825;BME280;42705;50.326;18.772;2023-02-04T17:49:20;99928.73;;;-1.95;70.81
56825;BME280;42705;50.326;18.772;2023-02-04T17:54:41;99936.13;;;-1.97;70.43
56825;BME280;42705;50.326;18.772;2023-02-04T18:00:09;99946.79;;;-1.99;70.33
56825;BME280;42705;50.326;18.772;2023-02-04T18:05:33;99954.81;;;-1.98;69.74
56825;BME280;42705;50.326;18.772;2023-02-04T18:10:54;99956.45;;;-1.93;69.33
56825;BME280;42705;50.326;18.772;2023-02-04T18:16:28;99962.01;;;-1.87;69.42
56825;BME280;42705;50.326;18.772;2023-02-04T18:21:50;99965.67;;;-1.80;69.27
56825;BME280;42705;50.326;18.772;2023-02-04T18:27:21;99959.29;;;-1.78;68.98
56825;BME280;42705;50.326;18.772;2023-02-04T18:32:42;99964.56;;;-1.76;68.84
56825;BME280;42705;50.326;18.772;2023-02-04T18:38:16;99963.06;;;-1.68;68.75
56825;BME280;42705;50.326;18.772;2023-02-04T18:43:41;99956.88;;;-1.66;68.56
56825;BME280;42705;50.326;18.772;2023-02-04T18:49:19;99962.42;;;-1.69;68.32
56825;BME280;42705;50.326;18.772;2023-02-04T18:54:55;99965.85;;;-1.70;67.98
56825;BME280;42705;50.326;18.772;2023-02-04T19:00:26;99962.94;;;-1.71;67.95
56825;BME280;42705;50.326;18.772;2023-02-04T19:05:48;99966.65;;;-1.66;67.98
56825;BME280;42705;50.326;18.772;2023-02-04T19:16:42;99972.37;;;-1.71;67.71
56825;BME280;42705;50.326;18.772;2023-02-04T19:27:50;99970.79;;;-1.79;68.06
56825;BME280;42705;50.326;18.772;2023-02-04T19:33:24;99986.63;;;-1.85;68.50
56825;BME280;42705;50.326;18.772;2023-02-04T19:38:46;99993.56;;;-2.02;69.31
56825;BME280;42705;50.326;18.772;2023-02-04T19:49:35;99987.83;;;-2.45;70.36
56825;BME280;42705;50.326;18.772;2023-02-04T19:55:22;99991.90;;;-2.56;70.60
56825;BME280;42705;50.326;18.772;2023-02-04T20:06:36;99999.80;;;-2.73;71.34
56825;BME280;42705;50.326;18.772;2023-02-04T20:12:02;100002.27;;;-2.81;71.39
56825;BME280;42705;50.326;18.772;2023-02-04T20:17:43;100004.72;;;-2.85;71.39
56825;BME280;42705;50.326;18.772;2023-02-04T20:23:26;100016.17;;;-2.83;71.29
56825;BME280;42705;50.326;18.772;2023-02-04T20:28:49;100022.19;;;-2.87;71.37
56825;BME280;42705;50.326;18.772;2023-02-04T20:34:18;100019.85;;;-2.92;71.15
56825;BME280;42705;50.326;18.772;2023-02-04T20:39:42;100029.89;;;-2.87;71.08
56825;BME280;42705;50.326;18.772;2023-02-04T20:45:16;100029.31;;;-2.81;70.84
56825;BME280;42705;50.326;18.772;2023-02-04T20:50:43;100034.89;;;-2.75;70.72
56825;BME280;42705;50.326;18.772;2023-02-04T20:56:30;100040.52;;;-2.73;70.89
56825;BME280;42705;50.326;18.772;2023-02-04T21:01:53;100049.89;;;-2.70;70.35
56825;BME280;42705;50.326;18.772;2023-02-04T21:07:21;100047.95;;;-2.81;70.03
56825;BME280;42705;50.326;18.772;2023-02-04T21:12:42;100052.83;;;-2.89;69.77
56825;BME280;42705;50.326;18.772;2023-02-04T21:18:05;100066.72;;;-2.94;69.66
56825;BME280;42705;50.326;18.772;2023-02-04T21:23:27;100076.98;;;-2.94;69.59
56825;BME280;42705;50.326;18.772;2023-02-04T21:28:48;100084.13;;;-2.89;69.42
56825;BME280;42705;50.326;18.772;2023-02-04T21:34:10;100081.36;;;-2.87;69.48
56825;BME280;42705;50.326;18.772;2023-02-04T21:39:31;100083.34;;;-2.96;69.13
56825;BME280;42705;50.326;18.772;2023-02-04T21:44:52;100089.39;;;-3.04;69.01
56825;BME280;42705;50.326;18.772;2023-02-04T21:50:16;100095.10;;;-3.12;69.07
56825;BME280;42705;50.326;18.772;2023-02-04T21:55:38;100094.91;;;-3.09;69.07
56825;BME280;42705;50.326;18.772;2023-02-04T22:01:00;100095.54;;;-3.03;69.06
56825;BME280;42705;50.326;18.772;2023-02-04T22:06:21;100094.68;;;-3.03;69.26
56825;BME280;42705;50.326;18.772;2023-02-04T22:11:42;100096.91;;;-3.05;69.02
56825;BME280;42705;50.326;18.772;2023-02-04T22:17:08;100104.95;;;-3.05;69.08
56825;BME280;42705;50.326;18.772;2023-02-04T22:22:29;100109.00;;;-2.99;69.19
56825;BME280;42705;50.326;18.772;2023-02-04T22:27:51;100114.05;;;-2.90;69.34
56825;BME280;42705;50.326;18.772;2023-02-04T22:33:12;100120.83;;;-2.82;69.40
56825;BME280;42705;50.326;18.772;2023-02-04T22:38:34;100123.52;;;-2.78;69.25
56825;BME280;42705;50.326;18.772;2023-02-04T22:43:55;100135.30;;;-2.77;69.41
56825;BME280;42705;50.326;18.772;2023-02-04T22:49:16;100139.93;;;-2.77;69.18
56825;BME280;42705;50.326;18.772;2023-02-04T22:54:38;100135.46;;;-2.74;69.26
56825;BME280;42705;50.326;18.772;2023-02-04T23:00:00;100138.38;;;-2.75;69.29
56825;BME280;42705;50.326;18.772;2023-02-04T23:05:21;100140.75;;;-2.73;69.34
56825;BME280;42705;50.326;18.772;2023-02-04T23:10:44;100144.77;;;-2.63;69.64
56825;BME280;42705;50.326;18.772;2023-02-04T23:16:06;100145.67;;;-2.52;69.42
56825;BME280;42705;50.326;18.772;2023-02-04T23:21:27;100152.47;;;-2.48;69.68
56825;BME280;42705;50.326;18.772;2023-02-04T23:26:50;100158.31;;;-2.49;69.66
56825;BME280;42705;50.326;18.772;2023-02-04T23:32:11;100163.11;;;-2.50;69.48
56825;BME280;42705;50.326;18.772;2023-02-04T23:37:33;100163.62;;;-2.50;69.80
56825;BME280;42705;50.326;18.772;2023-02-04T23:42:54;100169.77;;;-2.49;69.96
56825;BME280;42705;50.326;18.772;2023-02-04T23:48:16;100163.36;;;-2.41;69.99
56825;BME280;42705;50.326;18.772;2023-02-04T23:53:37;100160.14;;;-2.27;70.07
56825;BME280;42705;50.326;18.772;2023-02-04T23:58:59;100153.95;;;-2.25;70.15
